Time;durP1;ratioP1;P1;durP2;ratioP2;P2;SDS_P1;SDS_P2;PMS_P1;PMS_P2;Temp;Humidity;BMP_temperature;BMP_pressure;BME280_temperature;BME280_humidity;BME280_pressure;Samples;Min_cycle;Max_cycle;Signal;HPM_P1;HPM_P2
2022/12/30 00:00:48;;;;;;;14.65;3.55;;;7.60;81.50;;;;;;5145120;27;20837;-69
2022/12/30 00:03:14;;;;;;;17.75;3.15;;;7.60;81.40;;;;;;5139812;27;20074;-69
2022/12/30 00:05:40;;;;;;;20.00;5.30;;;7.60;81.40;;;;;;5134364;27;20043;-69
2022/12/30 00:08:45;;;;;;;21.25;3.88;;;7.50;81.40;;;;;;5134205;27;20046;-69
2022/12/30 00:10:54;;;;;;;17.33;3.78;;;7.60;81.50;;;;;;5120868;27;20070;-69
2022/12/30 00:35:19;;;;;;;23.30;3.92;;;7.40;81.50;;;;;;5133294;27;20081;-70
2022/12/30 00:37:45;;;;;;;19.25;3.65;;;7.40;81.60;;;;;;5133633;27;20046;-70
2022/12/30 00:40:11;;;;;;;19.20;3.88;;;7.40;81.60;;;;;;5133824;27;20083;-70
2022/12/30 00:45:23;;;;;;;12.05;3.85;;;7.40;81.50;;;;;;5140509;27;20068;-69
2022/12/30 00:47:49;;;;;;;16.85;3.55;;;7.40;81.50;;;;;;5133221;27;20118;-70
2022/12/30 00:58:27;;;;;;;20.50;4.73;;;7.30;81.50;;;;;;5148250;27;20035;-70
2022/12/30 01:00:54;;;;;;;11.43;2.92;;;7.30;81.50;;;;;;5116664;27;20277;-69
2022/12/30 01:03:20;;;;;;;21.75;3.35;;;7.30;81.50;;;;;;5133658;27;20054;-70
2022/12/30 01:05:46;;;;;;;20.10;3.15;;;7.30;81.50;;;;;;5116492;27;20482;-70
2022/12/30 01:08:11;;;;;;;18.10;3.35;;;7.20;81.50;;;;;;5133459;27;20046;-70
2022/12/30 01:10:40;;;;;;;18.55;3.38;;;7.20;81.50;;;;;;5116252;27;20035;-70
2022/12/30 01:13:07;;;;;;;16.88;3.60;;;7.20;81.60;;;;;;5132850;27;20030;-70
2022/12/30 01:15:33;;;;;;;13.00;2.40;;;7.30;81.60;;;;;;5133442;27;20049;-70
2022/12/30 01:17:59;;;;;;;17.60;3.70;;;7.20;81.60;;;;;;5116221;27;20045;-71
2022/12/30 01:20:25;;;;;;;17.73;3.33;;;7.20;81.60;;;;;;5133248;27;20065;-70
2022/12/30 01:22:50;;;;;;;17.60;3.70;;;7.20;81.60;;;;;;5133306;27;20050;-70
2022/12/30 01:25:16;;;;;;;15.48;3.38;;;7.20;81.70;;;;;;5133016;27;20031;-70
2022/12/30 01:27:42;;;;;;;15.02;2.88;;;7.20;81.70;;;;;;5115953;27;20062;-70
2022/12/30 01:30:08;;;;;;;17.17;3.38;;;7.20;81.70;;;;;;5132695;27;20043;-70
2022/12/30 01:32:36;;;;;;;18.17;4.10;;;7.20;81.80;;;;;;5132359;27;20429;-71
2022/12/30 01:35:03;;;;;;;15.30;3.35;;;7.20;81.80;;;;;;5132744;27;20119;-72
2022/12/30 01:37:29;;;;;;;13.70;3.47;;;7.10;81.80;;;;;;5132501;27;20551;-70
2022/12/30 01:39:55;;;;;;;17.40;4.13;;;7.10;82.10;;;;;;5132883;27;20035;-70
2022/12/30 01:42:26;;;;;;;17.60;3.60;;;7.20;81.80;;;;;;5132342;27;20414;-71
2022/12/30 01:45:18;;;;;;;10.32;2.83;;;7.10;81.80;;;;;;5132089;27;20074;-71
2022/12/30 01:47:49;;;;;;;13.77;3.58;;;7.10;81.80;;;;;;5119825;27;20464;-71
2022/12/30 01:50:44;;;;;;;16.92;3.15;;;7.10;81.80;;;;;;5115174;27;20043;-70
2022/12/30 01:53:21;;;;;;;14.77;3.70;;;7.10;81.80;;;;;;5132354;27;20538;-71
2022/12/30 01:55:51;;;;;;;16.45;3.63;;;7.00;81.80;;;;;;5115518;27;20074;-70
2022/12/30 01:58:27;;;;;;;14.93;3.40;;;7.10;82.30;;;;;;5115389;27;20118;-70
2022/12/30 02:00:53;;;;;;;14.77;3.17;;;7.10;81.90;;;;;;5130804;27;20035;-70
2022/12/30 02:03:19;;;;;;;16.73;3.85;;;7.00;81.90;;;;;;5114862;27;20035;-70
2022/12/30 02:05:47;;;;;;;23.13;4.53;;;7.00;81.90;;;;;;5132177;27;20043;-71
2022/12/30 02:08:18;;;;;;;18.10;4.18;;;7.00;82.00;;;;;;5112873;27;20046;-71
2022/12/30 02:10:51;;;;;;;20.30;4.32;;;7.00;82.00;;;;;;5115673;27;20434;-70
2022/12/30 02:13:18;;;;;;;17.05;4.10;;;7.00;82.10;;;;;;5129369;27;20140;-70
2022/12/30 02:15:54;;;;;;;12.70;2.97;;;7.00;82.10;;;;;;5132570;27;20390;-70
2022/12/30 02:18:55;;;;;;;18.77;4.10;;;7.00;82.10;;;;;;5115385;27;20034;-70
2022/12/30 02:21:24;;;;;;;17.48;3.38;;;7.00;82.10;;;;;;5105935;27;20035;-70
2022/12/30 02:23:55;;;;;;;18.58;3.88;;;6.90;82.10;;;;;;5114117;27;20035;-70
2022/12/30 02:26:26;;;;;;;16.45;3.38;;;6.90;82.20;;;;;;5131561;27;20532;-70
2022/12/30 02:29:39;;;;;;;15.50;3.38;;;6.90;82.60;;;;;;5131697;27;20049;-70
2022/12/30 02:32:16;;;;;;;15.30;3.22;;;6.90;82.20;;;;;;5131657;27;20378;-70
2022/12/30 02:34:55;;;;;;;14.63;3.92;;;6.90;82.30;;;;;;5113084;27;20031;-70
2022/12/30 02:37:42;;;;;;;17.50;4.20;;;6.90;82.30;;;;;;5131247;27;20084;-70
2022/12/30 02:40:27;;;;;;;12.48;2.55;;;6.90;82.30;;;;;;5132087;27;20035;-71
2022/12/30 02:45:58;;;;;;;12.73;2.75;;;6.80;82.30;;;;;;5131450;27;20483;-70
2022/12/30 02:48:28;;;;;;;12.32;3.00;;;6.80;82.40;;;;;;5131639;27;20035;-70
2022/12/30 02:53:41;;;;;;;9.52;2.60;;;6.80;82.40;;;;;;5130614;27;20085;-71
2022/12/30 02:56:08;;;;;;;18.77;3.10;;;6.80;82.40;;;;;;5131433;27;20027;-71
2022/12/30 02:58:39;;;;;;;15.88;3.78;;;6.80;82.40;;;;;;5131195;27;20595;-71
2022/12/30 03:04:25;;;;;;;11.65;3.47;;;6.80;82.40;;;;;;5131101;27;20075;-70
2022/12/30 03:07:02;;;;;;;12.38;3.00;;;6.70;82.40;;;;;;5131363;27;20051;-70
2022/12/30 03:13:25;;;;;;;15.85;3.70;;;6.70;82.50;;;;;;5146471;27;20063;-70
2022/12/30 03:16:00;;;;;;;12.60;2.88;;;6.70;82.40;;;;;;5130128;27;20047;-70
2022/12/30 03:18:28;;;;;;;11.57;2.60;;;6.60;82.50;;;;;;5129334;27;20043;-70
2022/12/30 03:20:54;;;;;;;9.23;2.22;;;6.70;82.60;;;;;;5130974;27;20031;-70
2022/12/30 03:28:52;;;;;;;12.45;3.33;;;6.60;82.60;;;;;;5140093;27;20046;-70
2022/12/30 03:31:20;;;;;;;15.25;3.70;;;6.60;82.60;;;;;;5131238;27;20119;-70
2022/12/30 03:33:46;;;;;;;15.90;3.15;;;6.60;82.70;;;;;;5129950;27;20079;-70
2022/12/30 03:36:36;;;;;;;13.38;2.65;;;6.60;82.70;;;;;;5133807;27;20050;-70
2022/12/30 03:39:15;;;;;;;17.33;2.95;;;6.60;82.70;;;;;;5133317;27;20047;-70
2022/12/30 03:41:47;;;;;;;10.05;2.60;;;6.50;82.70;;;;;;5134685;27;20073;-70
2022/12/30 03:44:15;;;;;;;12.15;2.83;;;6.50;82.70;;;;;;5134920;27;20039;-70
2022/12/30 03:46:43;;;;;;;16.13;2.70;;;6.50;82.70;;;;;;5117380;27;20047;-70
2022/12/30 03:49:09;;;;;;;10.20;2.28;;;6.50;82.70;;;;;;5132989;27;20494;-70
2022/12/30 03:51:35;;;;;;;10.77;2.60;;;6.50;82.70;;;;;;5134936;27;20062;-70
2022/12/30 03:54:00;;;;;;;14.40;3.33;;;6.50;82.70;;;;;;5134817;27;20043;-70
2022/12/30 03:56:26;;;;;;;12.13;2.38;;;6.40;82.70;;;;;;5117555;27;20054;-70
2022/12/30 03:58:52;;;;;;;13.82;2.47;;;6.50;82.80;;;;;;5118122;27;20040;-70
2022/12/30 04:01:17;;;;;;;13.05;3.15;;;6.40;82.80;;;;;;5117759;27;20559;-70
2022/12/30 04:03:43;;;;;;;10.55;2.20;;;6.40;82.90;;;;;;5113785;27;20040;-70
2022/12/30 04:06:09;;;;;;;11.90;3.28;;;6.40;82.90;;;;;;5134913;27;20054;-70
2022/12/30 04:08:34;;;;;;;11.82;2.85;;;6.40;82.90;;;;;;5134319;27;20561;-70
2022/12/30 04:11:00;;;;;;;14.38;3.03;;;6.40;82.90;;;;;;5135456;27;20035;-70
2022/12/30 04:13:26;;;;;;;16.90;3.10;;;6.30;82.90;;;;;;5135289;27;20124;-70
2022/12/30 04:15:52;;;;;;;11.32;2.67;;;6.30;82.90;;;;;;5134428;27;20067;-70
2022/12/30 04:18:18;;;;;;;13.02;2.50;;;6.30;83.00;;;;;;5117852;27;20073;-70
2022/12/30 04:20:45;;;;;;;9.32;2.58;;;6.30;83.00;;;;;;5134610;27;20168;-70
2022/12/30 04:23:11;;;;;;;17.58;2.70;;;6.30;83.00;;;;;;5097856;27;20046;-70
2022/12/30 04:25:36;;;;;;;10.45;1.92;;;6.30;83.00;;;;;;5134395;27;20035;-70
2022/12/30 04:28:02;;;;;;;11.38;3.45;;;6.30;83.00;;;;;;5132904;27;20072;-71
2022/12/30 04:30:28;;;;;;;19.27;3.75;;;6.20;83.00;;;;;;5134015;27;20513;-70
2022/12/30 04:32:53;;;;;;;16.42;3.20;;;6.30;83.10;;;;;;5133979;27;20082;-70
2022/12/30 04:35:19;;;;;;;10.90;2.97;;;6.20;83.00;;;;;;5131656;27;20047;-68
2022/12/30 04:37:48;;;;;;;13.68;2.92;;;6.20;83.00;;;;;;5114777;27;20035;-69
2022/12/30 04:40:14;;;;;;;15.65;2.95;;;6.20;83.10;;;;;;5134534;27;20486;-69
2022/12/30 04:42:39;;;;;;;11.07;3.08;;;6.20;83.10;;;;;;5134479;27;20123;-69
2022/12/30 04:45:06;;;;;;;15.65;3.38;;;6.20;83.10;;;;;;5133506;27;20113;-69
2022/12/30 04:47:31;;;;;;;12.82;3.90;;;6.20;83.20;;;;;;5116010;27;20043;-69
2022/12/30 04:49:57;;;;;;;12.15;3.45;;;6.20;83.20;;;;;;5134142;27;20164;-69
2022/12/30 04:52:23;;;;;;;15.55;3.90;;;6.10;83.10;;;;;;5133905;27;20100;-69
2022/12/30 04:54:48;;;;;;;15.48;3.90;;;6.10;83.10;;;;;;5133860;27;20043;-69
2022/12/30 04:57:14;;;;;;;12.82;3.42;;;6.10;83.10;;;;;;5116589;27;20051;-69
2022/12/30 04:59:40;;;;;;;13.02;3.58;;;6.10;83.10;;;;;;5133517;27;20054;-69
2022/12/30 05:02:06;;;;;;;12.18;2.90;;;6.10;83.10;;;;;;5134071;27;20046;-69
2022/12/30 05:04:31;;;;;;;10.63;3.53;;;6.10;83.10;;;;;;5099393;27;20497;-69
2022/12/30 05:06:57;;;;;;;9.90;2.92;;;6.00;83.00;;;;;;5133694;27;20043;-69
2022/12/30 05:09:23;;;;;;;14.45;3.95;;;6.00;83.00;;;;;;5116548;27;20047;-69
2022/12/30 05:11:49;;;;;;;14.95;3.75;;;6.00;83.00;;;;;;5116228;27;20522;-69
2022/12/30 05:14:14;;;;;;;14.52;3.88;;;6.00;82.90;;;;;;5132877;27;20130;-69
2022/12/30 05:16:40;;;;;;;16.13;3.95;;;6.00;83.00;;;;;;5116689;27;20059;-69
2022/12/30 05:19:06;;;;;;;12.75;3.65;;;5.90;82.90;;;;;;5133757;27;20128;-69
2022/12/30 05:21:31;;;;;;;9.02;2.90;;;5.90;83.00;;;;;;5115580;27;20495;-69
2022/12/30 05:26:41;;;;;;;10.98;3.58;;;5.90;83.40;;;;;;5133290;27;20149;-70
2022/12/30 05:29:07;;;;;;;11.25;3.50;;;5.90;83.00;;;;;;5116189;27;20129;-69
2022/12/30 05:31:32;;;;;;;15.82;4.07;;;5.80;83.00;;;;;;5133077;27;20039;-69
2022/12/30 05:33:58;;;;;;;10.77;3.33;;;5.90;83.00;;;;;;5132603;27;20036;-69
2022/12/30 05:36:24;;;;;;;12.50;3.45;;;5.80;83.00;;;;;;5133460;27;20122;-69
2022/12/30 05:38:49;;;;;;;9.57;2.83;;;5.80;83.00;;;;;;5132959;27;20474;-69
2022/12/30 05:41:15;;;;;;;14.15;3.25;;;5.80;83.00;;;;;;5115741;27;20192;-69
2022/12/30 05:43:41;;;;;;;12.05;2.75;;;5.80;83.00;;;;;;5098172;27;20058;-69
2022/12/30 05:46:06;;;;;;;13.30;3.10;;;5.80;83.00;;;;;;5133178;27;20103;-69
2022/12/30 05:48:32;;;;;;;10.35;3.17;;;5.80;83.10;;;;;;5129887;27;20634;-69
2022/12/30 05:50:58;;;;;;;15.63;3.47;;;5.80;83.10;;;;;;5132487;27;20085;-69
2022/12/30 05:53:23;;;;;;;13.35;3.60;;;5.70;83.20;;;;;;5132196;27;20035;-69
2022/12/30 05:55:50;;;;;;;11.95;3.28;;;5.80;83.30;;;;;;5132670;27;20035;-69
2022/12/30 05:58:16;;;;;;;15.38;2.90;;;5.70;83.20;;;;;;5114942;27;20035;-69
2022/12/30 06:00:41;;;;;;;15.32;3.70;;;5.70;83.30;;;;;;5115426;27;20041;-69
2022/12/30 06:03:07;;;;;;;13.52;3.17;;;5.70;83.30;;;;;;5132553;27;20412;-69
2022/12/30 06:05:33;;;;;;;15.73;3.13;;;5.70;83.30;;;;;;5116288;27;20039;-69
2022/12/30 06:07:59;;;;;;;12.23;3.00;;;5.70;83.40;;;;;;5133860;27;20119;-68
2022/12/30 06:10:24;;;;;;;11.65;2.80;;;5.70;83.40;;;;;;5116594;27;20405;-69
2022/12/30 06:12:50;;;;;;;11.48;3.42;;;5.70;83.50;;;;;;5133161;27;20035;-69
2022/12/30 06:15:16;;;;;;;13.15;3.17;;;5.70;83.40;;;;;;5133302;27;20086;-69
2022/12/30 06:17:41;;;;;;;13.45;3.35;;;5.70;83.40;;;;;;5133275;27;20031;-68
2022/12/30 06:20:07;;;;;;;9.85;2.15;;;5.70;83.30;;;;;;5133744;27;20035;-68
2022/12/30 06:22:33;;;;;;;13.52;3.63;;;5.60;83.30;;;;;;5116368;27;20389;-68
2022/12/30 06:24:59;;;;;;;15.48;3.13;;;5.70;83.40;;;;;;5115820;27;20046;-68
2022/12/30 06:27:25;;;;;;;16.08;3.55;;;5.60;83.30;;;;;;5133571;27;20038;-68
2022/12/30 06:29:51;;;;;;;15.27;3.08;;;5.60;83.40;;;;;;5133192;27;20065;-68
2022/12/30 06:32:17;;;;;;;18.02;2.80;;;5.60;83.40;;;;;;5115886;27;20039;-68
2022/12/30 06:34:42;;;;;;;13.30;2.90;;;5.70;83.40;;;;;;5115962;27;20507;-68
2022/12/30 06:37:08;;;;;;;13.23;3.45;;;5.70;83.40;;;;;;5133021;27;20122;-69
2022/12/30 06:39:34;;;;;;;15.35;3.35;;;5.60;83.70;;;;;;5133217;27;20031;-69
2022/12/30 06:41:59;;;;;;;17.00;4.40;;;5.60;83.40;;;;;;5133689;27;20100;-69
2022/12/30 06:44:25;;;;;;;16.63;3.60;;;5.60;83.40;;;;;;5115854;27;20038;-68
2022/12/30 06:46:51;;;;;;;12.80;2.60;;;5.60;83.30;;;;;;5133123;27;20043;-70
2022/12/30 06:49:16;;;;;;;15.60;3.15;;;5.60;83.40;;;;;;5132870;27;20070;-70
2022/12/30 06:51:42;;;;;;;11.55;2.55;;;5.60;83.30;;;;;;5132460;27;20528;-69
2022/12/30 06:54:08;;;;;;;17.38;4.45;;;5.40;83.20;;;;;;5132465;27;20035;-69
2022/12/30 06:56:34;;;;;;;16.52;3.42;;;5.50;83.30;;;;;;5132387;27;20047;-69
2022/12/30 06:58:59;;;;;;;13.77;3.20;;;5.60;83.40;;;;;;5132702;27;20482;-69
2022/12/30 07:01:25;;;;;;;12.02;2.72;;;5.60;83.40;;;;;;5132242;27;20421;-70
2022/12/30 07:03:51;;;;;;;14.50;3.00;;;5.60;83.40;;;;;;5132167;27;20073;-70
2022/12/30 07:06:16;;;;;;;13.98;3.10;;;5.50;83.30;;;;;;5132699;27;20050;-71
2022/12/30 07:08:42;;;;;;;10.50;2.97;;;5.60;83.40;;;;;;5115082;27;20403;-69
2022/12/30 07:11:08;;;;;;;12.05;2.70;;;5.50;83.40;;;;;;5131805;27;20366;-70
2022/12/30 07:13:33;;;;;;;12.73;2.92;;;5.50;83.40;;;;;;5131618;27;20047;-69
2022/12/30 07:15:59;;;;;;;7.85;2.65;;;5.50;83.40;;;;;;5114970;28;20043;-69
2022/12/30 07:18:25;;;;;;;10.88;3.00;;;5.50;83.40;;;;;;5115029;27;20041;-69
2022/12/30 07:20:51;;;;;;;13.82;3.90;;;5.50;83.40;;;;;;5131471;27;20031;-69
2022/12/30 07:23:16;;;;;;;13.82;3.50;;;5.50;83.40;;;;;;5114560;28;20452;-70
2022/12/30 07:25:45;;;;;;;15.07;3.40;;;5.50;83.40;;;;;;5132387;27;20382;-69
2022/12/30 07:28:11;;;;;;;15.02;2.97;;;5.50;83.50;;;;;;5131939;28;20039;-69
2022/12/30 07:30:36;;;;;;;14.30;3.25;;;5.50;83.50;;;;;;5115022;28;20042;-69
2022/12/30 07:33:02;;;;;;;18.30;3.08;;;5.50;83.50;;;;;;5132043;27;20391;-69
2022/12/30 07:35:28;;;;;;;17.02;3.55;;;5.50;83.50;;;;;;5114583;28;20047;-69
2022/12/30 07:37:54;;;;;;;11.48;4.07;;;5.50;83.50;;;;;;5132040;28;20122;-69
2022/12/30 07:40:19;;;;;;;16.80;2.92;;;5.50;83.40;;;;;;5131877;28;20042;-69
2022/12/30 07:42:45;;;;;;;11.55;2.80;;;5.50;83.40;;;;;;5114793;28;20128;-69
2022/12/30 07:45:11;;;;;;;12.07;3.85;;;5.50;83.40;;;;;;5131445;27;20126;-69
2022/12/30 07:47:36;;;;;;;16.00;3.13;;;5.50;83.40;;;;;;5131787;28;20127;-69
2022/12/30 07:50:06;;;;;;;12.20;2.70;;;5.50;83.40;;;;;;5094890;28;20051;-69
2022/12/30 07:52:32;;;;;;;10.48;2.65;;;5.50;83.40;;;;;;5111851;28;20051;-69
2022/12/30 07:54:58;;;;;;;14.38;2.65;;;5.50;83.40;;;;;;5124547;28;20489;-69
2022/12/30 07:57:23;;;;;;;12.55;3.20;;;5.50;83.40;;;;;;5114629;28;20066;-69
2022/12/30 07:59:49;;;;;;;18.08;3.30;;;5.50;83.50;;;;;;5132082;28;20039;-70
2022/12/30 08:02:15;;;;;;;13.88;3.20;;;5.50;83.50;;;;;;5129507;27;20474;-69
2022/12/30 08:04:40;;;;;;;14.02;2.60;;;5.50;83.50;;;;;;5141038;27;20061;-69
2022/12/30 08:07:06;;;;;;;17.25;4.13;;;5.50;83.50;;;;;;5130328;27;20131;-71
2022/12/30 08:09:32;;;;;;;14.95;3.28;;;5.50;83.60;;;;;;5130570;27;20043;-70
2022/12/30 08:11:57;;;;;;;17.10;4.03;;;5.50;83.60;;;;;;5131700;28;20045;-70
2022/12/30 08:14:24;;;;;;;18.60;3.25;;;5.50;83.70;;;;;;5112967;28;20055;-70
2022/12/30 08:16:50;;;;;;;14.43;3.75;;;5.50;83.70;;;;;;5131274;28;20042;-70
2022/12/30 08:19:15;;;;;;;17.25;3.33;;;5.50;83.70;;;;;;5131313;27;20397;-70
2022/12/30 08:21:41;;;;;;;11.45;2.80;;;5.50;83.70;;;;;;5132141;27;20118;-70
2022/12/30 08:24:08;;;;;;;14.18;3.53;;;5.60;83.90;;;;;;5134448;27;20035;-70
2022/12/30 08:26:35;;;;;;;16.48;3.50;;;5.60;83.90;;;;;;5134339;27;20054;-69
2022/12/30 08:29:00;;;;;;;17.88;3.58;;;5.60;83.90;;;;;;5134479;27;20039;-70
2022/12/30 08:31:28;;;;;;;15.38;4.93;;;5.60;83.90;;;;;;5134122;27;20108;-70
2022/12/30 08:33:55;;;;;;;11.80;3.78;;;5.60;83.90;;;;;;5133598;27;20424;-70
2022/12/30 08:36:24;;;;;;;13.90;2.95;;;5.60;83.90;;;;;;5133352;27;20362;-70
2022/12/30 08:38:53;;;;;;;11.30;3.55;;;5.60;83.90;;;;;;5117326;27;20087;-70
2022/12/30 08:41:23;;;;;;;14.48;3.53;;;5.60;84.00;;;;;;5137710;27;20080;-70
2022/12/30 08:43:50;;;;;;;12.93;3.00;;;5.60;84.00;;;;;;5140098;27;20042;-69
2022/12/30 08:46:18;;;;;;;11.35;2.58;;;5.70;84.10;;;;;;5118101;27;20035;-70
2022/12/30 08:48:44;;;;;;;20.27;4.22;;;5.70;84.10;;;;;;5118240;27;20075;-70
2022/12/30 08:51:10;;;;;;;14.43;3.35;;;5.70;84.20;;;;;;5134672;27;20051;-70
2022/12/30 08:53:37;;;;;;;12.27;2.97;;;5.70;84.10;;;;;;5133577;27;20114;-69
2022/12/30 08:56:04;;;;;;;14.32;3.08;;;5.80;84.20;;;;;;5134000;27;20039;-69
2022/12/30 08:58:31;;;;;;;14.23;3.13;;;5.80;84.20;;;;;;5133560;27;20083;-70
2022/12/30 09:00:57;;;;;;;11.43;3.40;;;5.80;84.20;;;;;;5133837;27;20419;-72
2022/12/30 09:03:23;;;;;;;11.60;3.05;;;5.90;84.20;;;;;;5133673;27;20492;-69
2022/12/30 09:05:51;;;;;;;16.48;3.90;;;5.80;84.10;;;;;;5133955;27;20031;-69
2022/12/30 09:08:17;;;;;;;14.05;4.05;;;5.90;84.20;;;;;;5116937;27;20432;-70
2022/12/30 09:10:42;;;;;;;14.00;3.15;;;5.90;84.20;;;;;;5133792;27;20050;-69
2022/12/30 09:13:08;;;;;;;11.68;2.72;;;5.90;84.10;;;;;;5130612;27;20490;-69
2022/12/30 09:15:34;;;;;;;13.02;3.50;;;5.90;84.10;;;;;;5134220;27;20405;-69
2022/12/30 09:17:59;;;;;;;12.30;4.07;;;6.00;84.10;;;;;;5134959;27;20049;-70
2022/12/30 09:20:25;;;;;;;13.10;4.13;;;6.00;84.10;;;;;;5134208;27;20035;-68
2022/12/30 09:22:51;;;;;;;10.77;3.55;;;6.00;84.10;;;;;;5134782;27;20114;-73
2022/12/30 09:25:17;;;;;;;12.23;2.67;;;6.10;84.20;;;;;;5117011;27;20845;-69
2022/12/30 09:27:42;;;;;;;15.15;4.10;;;6.10;84.10;;;;;;5134433;27;20053;-69
2022/12/30 09:30:08;;;;;;;11.70;2.95;;;6.10;84.10;;;;;;5135674;27;20035;-68
2022/12/30 09:32:34;;;;;;;11.57;2.88;;;6.20;84.20;;;;;;5134221;27;20073;-68
2022/12/30 09:35:00;;;;;;;13.85;3.25;;;6.20;84.10;;;;;;5116892;27;20078;-68
2022/12/30 09:37:25;;;;;;;10.60;3.10;;;6.20;84.10;;;;;;5133829;27;20035;-68
2022/12/30 09:39:51;;;;;;;11.93;3.08;;;6.20;84.10;;;;;;5117333;27;20043;-68
2022/12/30 09:45:31;;;;;;;12.40;2.88;;;6.30;84.10;;;;;;5119787;27;20039;-68
2022/12/30 09:48:05;;;;;;;8.55;2.55;;;6.30;84.50;;;;;;5116956;27;20047;-68
2022/12/30 09:50:42;;;;;;;13.32;2.60;;;6.40;84.10;;;;;;5151362;27;20486;-68
2022/12/30 09:53:38;;;;;;;12.60;2.70;;;6.40;84.00;;;;;;5133681;27;20088;-68
2022/12/30 09:56:20;;;;;;;14.07;4.38;;;6.40;83.90;;;;;;5133609;27;20039;-68
2022/12/30 09:58:46;;;;;;;11.77;2.78;;;6.50;83.80;;;;;;5133643;27;20027;-68
2022/12/30 10:01:30;;;;;;;12.20;3.03;;;6.50;83.70;;;;;;5133959;27;20122;-68
2022/12/30 10:03:59;;;;;;;11.10;2.38;;;6.50;83.70;;;;;;5133401;27;20031;-68
2022/12/30 10:06:31;;;;;;;12.75;2.72;;;6.60;83.70;;;;;;5133603;27;20068;-68
2022/12/30 10:09:15;;;;;;;8.55;2.83;;;6.60;83.60;;;;;;5116211;27;20082;-68
2022/12/30 10:12:01;;;;;;;10.32;2.88;;;6.60;83.60;;;;;;5133922;27;20392;-68
2022/12/30 10:14:31;;;;;;;9.38;2.63;;;6.60;83.60;;;;;;5133332;27;20070;-68
2022/12/30 10:17:18;;;;;;;9.68;2.42;;;6.70;83.60;;;;;;5133217;27;20050;-68
2022/12/30 10:20:00;;;;;;;8.65;2.35;;;6.70;83.50;;;;;;5116241;27;20043;-68
2022/12/30 10:22:48;;;;;;;10.35;3.05;;;6.70;83.40;;;;;;5133645;27;20148;-68
2022/12/30 10:25:23;;;;;;;10.38;2.95;;;6.80;83.40;;;;;;5133013;27;20031;-68
2022/12/30 10:27:53;;;;;;;10.55;2.75;;;6.80;83.40;;;;;;5133323;27;20039;-68
2022/12/30 10:30:22;;;;;;;7.82;2.47;;;6.80;83.30;;;;;;5133427;27;20118;-68
2022/12/30 10:32:55;;;;;;;5.38;2.05;;;6.90;83.20;;;;;;5133426;27;20118;-68
2022/12/30 10:35:28;;;;;;;8.85;2.45;;;7.00;83.00;;;;;;5133082;27;20059;-68
2022/12/30 10:38:05;;;;;;;8.30;2.63;;;7.00;82.90;;;;;;5133117;27;20042;-68
2022/12/30 10:40:50;;;;;;;9.93;2.42;;;7.00;82.80;;;;;;5133016;27;20180;-68
2022/12/30 10:43:28;;;;;;;8.27;2.10;;;7.10;82.70;;;;;;5132572;27;20039;-68
2022/12/30 10:45:54;;;;;;;7.43;2.75;;;7.10;82.60;;;;;;5132890;27;20080;-69
2022/12/30 10:49:04;;;;;;;11.10;2.20;;;7.20;82.40;;;;;;5132739;27;20050;-69
2022/12/30 10:51:30;;;;;;;5.90;2.08;;;7.20;82.20;;;;;;5107382;28;20047;-69
2022/12/30 10:53:56;;;;;;;7.72;1.73;;;7.20;82.20;;;;;;5112078;28;20051;-69
2022/12/30 10:56:30;;;;;;;12.65;2.22;;;7.20;82.10;;;;;;5131510;27;20039;-70
2022/12/30 10:59:02;;;;;;;7.93;1.95;;;7.30;82.00;;;;;;5133035;27;20031;-70
2022/12/30 11:01:35;;;;;;;7.47;1.90;;;7.30;81.80;;;;;;5132703;27;20040;-70
2022/12/30 11:04:02;;;;;;;6.25;2.22;;;7.30;81.70;;;;;;5131977;27;20031;-69
2022/12/30 11:06:34;;;;;;;6.15;1.95;;;7.30;81.60;;;;;;5115175;28;20031;-69
2022/12/30 11:09:11;;;;;;;5.55;2.20;;;7.40;81.50;;;;;;5132338;27;20035;-70
2022/12/30 11:14:42;;;;;;;7.07;1.73;;;7.40;81.30;;;;;;5130707;27;20059;-70
2022/12/30 11:17:20;;;;;;;7.95;1.95;;;7.40;81.30;;;;;;5130175;28;20036;-69
2022/12/30 11:20:00;;;;;;;8.20;1.90;;;7.50;81.10;;;;;;5112796;28;20038;-71
2022/12/30 11:22:28;;;;;;;9.25;1.92;;;7.50;80.90;;;;;;5131335;27;20047;-68
2022/12/30 11:25:25;;;;;;;5.18;1.65;;;7.50;80.90;;;;;;5133301;28;20052;-68
2022/12/30 11:27:55;;;;;;;6.47;1.63;;;7.50;80.70;;;;;;5130395;28;20501;-70
2022/12/30 11:30:31;;;;;;;6.80;1.77;;;7.50;80.90;;;;;;5114775;28;20035;-69
2022/12/30 11:33:00;;;;;;;5.18;1.75;;;7.60;80.80;;;;;;5132344;28;20451;-70
2022/12/30 11:35:45;;;;;;;8.05;1.63;;;7.60;80.60;;;;;;5129486;27;20508;-70
2022/12/30 11:38:34;;;;;;;10.85;2.40;;;7.60;80.50;;;;;;5132016;28;20114;-69
2022/12/30 11:41:25;;;;;;;8.45;2.20;;;7.60;80.30;;;;;;5131777;27;20039;-68
2022/12/30 11:44:00;;;;;;;6.85;1.50;;;7.70;80.30;;;;;;5130103;27;20122;-68
2022/12/30 11:46:50;;;;;;;9.23;2.95;;;7.70;80.30;;;;;;5132015;28;20039;-68
2022/12/30 11:49:15;;;;;;;7.20;1.58;;;7.70;80.20;;;;;;5132363;28;20047;-68
2022/12/30 11:51:45;;;;;;;6.18;1.70;;;7.70;80.10;;;;;;5132279;27;20409;-68
2022/12/30 11:54:11;;;;;;;8.23;2.42;;;7.70;80.00;;;;;;5149090;27;20047;-68
2022/12/30 11:56:55;;;;;;;7.18;1.52;;;7.80;79.80;;;;;;5133801;27;20043;-68
2022/12/30 11:59:25;;;;;;;6.30;1.70;;;7.80;79.40;;;;;;5136060;27;20482;-68
2022/12/30 12:01:56;;;;;;;6.03;1.58;;;7.80;79.60;;;;;;5135816;27;20043;-68
2022/12/30 12:04:32;;;;;;;9.27;1.58;;;7.90;79.50;;;;;;5138563;27;20434;-68
2022/12/30 12:06:59;;;;;;;7.28;1.42;;;7.90;79.10;;;;;;5115753;28;20040;-68
2022/12/30 12:09:43;;;;;;;6.00;1.80;;;7.90;79.10;;;;;;5115799;28;20070;-68
2022/12/30 12:12:11;;;;;;;;;;;8.00;78.50;;;;;;5133055;27;20046;-68
2022/12/30 12:14:50;;;;;;;6.32;1.40;;;8.00;78.60;;;;;;5132246;27;19927;-68
2022/12/30 12:17:46;;;;;;;8.88;2.35;;;8.10;78.70;;;;;;5124224;27;20092;-68
2022/12/30 12:20:21;;;;;;;8.70;1.88;;;8.10;78.50;;;;;;5135996;27;20393;-68
2022/12/30 12:23:15;;;;;;;5.07;1.48;;;8.10;78.60;;;;;;5118586;27;20043;-68
2022/12/30 12:25:58;;;;;;;7.28;1.67;;;8.20;78.50;;;;;;5136009;27;20129;-68
2022/12/30 12:28:25;;;;;;;5.20;1.63;;;8.20;78.50;;;;;;5118429;27;20050;-68
2022/12/30 12:31:02;;;;;;;5.93;1.33;;;8.20;78.40;;;;;;5135412;27;20051;-68
2022/12/30 12:33:46;;;;;;;6.43;1.45;;;8.30;78.20;;;;;;5135774;27;20078;-68
2022/12/30 12:36:17;;;;;;;7.30;1.65;;;8.30;77.90;;;;;;5137807;27;20054;-68
2022/12/30 12:39:10;;;;;;;8.50;1.60;;;8.30;77.20;;;;;;5147728;27;20031;-68
2022/12/30 12:41:51;;;;;;;3.78;1.00;;;8.40;76.90;;;;;;5148904;27;20358;-69
2022/12/30 12:44:32;;;;;;;5.28;1.20;;;8.40;76.70;;;;;;5148697;27;20131;-69
2022/12/30 12:47:36;;;;;;;5.43;1.33;;;8.50;76.50;;;;;;5147265;27;20465;-69
2022/12/30 12:50:23;;;;;;;5.00;1.10;;;8.60;76.40;;;;;;5048603;28;20051;-69
2022/12/30 12:53:09;;;;;;;7.50;1.30;;;8.60;76.60;;;;;;5032572;28;20127;-69
2022/12/30 12:55:54;;;;;;;3.65;1.13;;;8.60;76.30;;;;;;5098095;27;20072;-68
2022/12/30 12:58:23;;;;;;;;;;;8.70;76.20;;;;;;5149233;27;20515;-68
2022/12/30 13:00:51;;;;;;;5.65;1.70;;;8.70;76.00;;;;;;5130594;27;19923;-68
2022/12/30 13:03:26;;;;;;;6.07;1.17;;;8.70;76.00;;;;;;5148298;27;20049;-68
2022/12/30 13:05:57;;;;;;;6.82;1.50;;;8.70;75.60;;;;;;5142779;27;20389;-68
2022/12/30 13:08:36;;;;;;;7.57;2.08;;;8.80;75.60;;;;;;5146108;27;20042;-68
2022/12/30 13:11:26;;;;;;;5.20;1.30;;;8.80;75.50;;;;;;5148632;27;20059;-68
2022/12/30 13:14:04;;;;;;;4.05;1.25;;;8.80;75.50;;;;;;5147263;27;20058;-69
2022/12/30 13:16:38;;;;;;;7.70;2.05;;;8.80;75.50;;;;;;5129896;27;20061;-69
2022/12/30 13:19:05;;;;;;;8.05;1.80;;;8.80;75.40;;;;;;5147893;27;20045;-68
2022/12/30 13:21:31;;;;;;;4.65;1.45;;;8.90;75.40;;;;;;5146678;27;20087;-68
2022/12/30 13:24:02;;;;;;;6.35;1.42;;;8.90;75.50;;;;;;5147295;27;20053;-68
2022/12/30 13:26:29;;;;;;;9.05;1.98;;;8.90;75.30;;;;;;5121526;27;20034;-68
2022/12/30 13:29:00;;;;;;;3.35;1.10;;;8.90;75.40;;;;;;5129489;27;20122;-68
2022/12/30 13:31:30;;;;;;;8.73;2.50;;;8.90;75.10;;;;;;5148446;27;20033;-69
2022/12/30 13:34:32;;;;;;;6.88;1.33;;;9.00;74.30;;;;;;5146737;27;20103;-68
2022/12/30 13:37:16;;;;;;;5.13;1.60;;;9.10;74.30;;;;;;5147260;27;20042;-68
2022/12/30 13:39:48;;;;;;;4.85;0.90;;;9.10;74.50;;;;;;5146137;27;20074;-69
2022/12/30 13:42:14;;;;;;;5.25;1.17;;;9.10;74.30;;;;;;5146065;27;20499;-68
2022/12/30 13:44:44;;;;;;;9.23;1.70;;;9.20;74.30;;;;;;5147601;27;20039;-68
2022/12/30 13:47:42;;;;;;;6.88;1.65;;;9.20;73.90;;;;;;5145970;27;20050;-69
2022/12/30 13:50:22;;;;;;;4.47;1.17;;;9.30;73.70;;;;;;5144739;27;20049;-69
2022/12/30 13:52:52;;;;;;;7.07;1.23;;;9.30;73.80;;;;;;5145560;27;20087;-68
2022/12/30 13:55:28;;;;;;;5.30;1.33;;;9.30;74.00;;;;;;5144143;27;20164;-68
2022/12/30 13:58:28;;;;;;;3.25;1.05;;;9.30;73.90;;;;;;5144003;27;20068;-69
2022/12/30 14:01:27;;;;;;;3.97;1.02;;;9.30;73.50;;;;;;5143985;27;20074;-68
2022/12/30 14:04:12;;;;;;;7.75;1.50;;;9.30;73.70;;;;;;5125027;27;20094;-68
2022/12/30 14:06:52;;;;;;;6.18;1.20;;;9.40;73.90;;;;;;5139401;27;20107;-68
2022/12/30 14:09:31;;;;;;;6.32;1.40;;;9.40;74.20;;;;;;5143275;27;20031;-68